Aviation Digital Data Service (ADDS)

Output produced by METARs form (1040 UTC 03 July 2015)
found at http://aviationweather.gov/adds/metars/
 
KBTV 030847Z 0309/0406 VRB03KT P6SM SKC 
     FM031300 26007KT P6SM SKC 
     FM040000 VRB03KT P6SM SKC